Christiana, Delaware
Current Conditions -  °F | °C
As of 5:51 AM on Saturday 25 Oct 2014 (Local Time) from KILG Reporting Station
Clear Clear  
Wind Chill: 47°   Ceiling: Unl
Heat Index: 47°   Visibility: 10mi
Dew Point: 40°   Wind: 3mph
Humidity: 77%   Direction: 180°S
Pressure: 29.93"   Gusts: NA
Location:  39.6223°N, 75.7264°W
Report Text: KILG 250951Z 18003KT 10SM CLR 08/04 A2993 RMK AO2 SLP133 T00830044
Loading
Personal Weather Stations






























Interactive Weather Map
Tropical Storm Tracking
New forecast layout! Learn more

10-Day Weather Forecast

Advertisements
Track Severe Weather on mobile